sensor_id;sensor_type;location;lat;lon;timestamp;pressure;altitude;pressure_sealevel;temperature;humidity
59650;BME280;46162;57.568;25.814;2023-03-05T00:01:41;99017.50;;;-2.70;100.00
59650;BME280;46162;57.568;25.814;2023-03-05T00:04:12;99015.00;;;-2.72;100.00
59650;BME280;46162;57.568;25.814;2023-03-05T00:06:41;99013.84;;;-2.81;100.00
59650;BME280;46162;57.568;25.814;2023-03-05T00:09:10;99009.53;;;-2.82;100.00
59650;BME280;46162;57.568;25.814;2023-03-05T00:11:38;99011.19;;;-2.81;100.00
59650;BME280;46162;57.568;25.814;2023-03-05T00:14:07;99014.66;;;-2.80;100.00
59650;BME280;46162;57.568;25.814;2023-03-05T00:16:37;99012.88;;;-2.79;100.00
59650;BME280;46162;57.568;25.814;2023-03-05T00:19:07;99013.63;;;-2.77;100.00
59650;BME280;46162;57.568;25.814;2023-03-05T00:21:37;99012.03;;;-2.80;100.00
59650;BME280;46162;57.568;25.814;2023-03-05T00:24:10;99014.44;;;-2.77;100.00
59650;BME280;46162;57.568;25.814;2023-03-05T00:26:39;99015.50;;;-2.79;100.00
59650;BME280;46162;57.568;25.814;2023-03-05T00:29:09;99012.16;;;-2.82;100.00
59650;BME280;46162;57.568;25.814;2023-03-05T00:31:38;99021.75;;;-2.81;100.00
59650;BME280;46162;57.568;25.814;2023-03-05T00:34:12;99022.72;;;-2.82;100.00
59650;BME280;46162;57.568;25.814;2023-03-05T00:36:43;99013.75;;;-2.79;100.00
59650;BME280;46162;57.568;25.814;2023-03-05T00:39:12;99023.56;;;-2.81;100.00
59650;BME280;46162;57.568;25.814;2023-03-05T00:41:41;99018.38;;;-2.83;100.00
59650;BME280;46162;57.568;25.814;2023-03-05T00:44:11;99008.03;;;-2.86;100.00
59650;BME280;46162;57.568;25.814;2023-03-05T00:46:39;99016.69;;;-2.84;100.00
59650;BME280;46162;57.568;25.814;2023-03-05T00:49:09;99015.22;;;-2.88;100.00
59650;BME280;46162;57.568;25.814;2023-03-05T00:51:38;99021.25;;;-2.86;100.00
59650;BME280;46162;57.568;25.814;2023-03-05T00:54:06;99016.91;;;-2.87;100.00
59650;BME280;46162;57.568;25.814;2023-03-05T00:56:35;99016.69;;;-2.84;100.00
59650;BME280;46162;57.568;25.814;2023-03-05T00:59:04;99014.47;;;-2.90;100.00
59650;BME280;46162;57.568;25.814;2023-03-05T01:01:32;99023.03;;;-2.86;100.00
59650;BME280;46162;57.568;25.814;2023-03-05T01:04:02;99023.78;;;-2.84;100.00
59650;BME280;46162;57.568;25.814;2023-03-05T01:06:32;99018.81;;;-2.89;100.00
59650;BME280;46162;57.568;25.814;2023-03-05T01:09:00;99027.16;;;-2.95;100.00
59650;BME280;46162;57.568;25.814;2023-03-05T01:11:29;99032.22;;;-2.92;100.00
59650;BME280;46162;57.568;25.814;2023-03-05T01:13:58;99028.75;;;-2.92;100.00
59650;BME280;46162;57.568;25.814;2023-03-05T01:16:28;99034.16;;;-2.94;100.00
59650;BME280;46162;57.568;25.814;2023-03-05T01:18:56;99036.78;;;-2.94;100.00
59650;BME280;46162;57.568;25.814;2023-03-05T01:21:25;99032.44;;;-2.95;100.00
59650;BME280;46162;57.568;25.814;2023-03-05T01:23:55;99035.72;;;-2.91;100.00
59650;BME280;46162;57.568;25.814;2023-03-05T01:26:24;99036.97;;;-2.97;100.00
59650;BME280;46162;57.568;25.814;2023-03-05T01:28:53;99038.69;;;-2.96;100.00
59650;BME280;46162;57.568;25.814;2023-03-05T01:31:21;99037.09;;;-2.98;100.00
59650;BME280;46162;57.568;25.814;2023-03-05T01:33:51;99035.53;;;-3.01;100.00
59650;BME280;46162;57.568;25.814;2023-03-05T01:36:21;99041.84;;;-3.04;100.00
59650;BME280;46162;57.568;25.814;2023-03-05T01:38:51;99041.94;;;-3.05;100.00
59650;BME280;46162;57.568;25.814;2023-03-05T01:41:21;99038.38;;;-3.04;100.00
59650;BME280;46162;57.568;25.814;2023-03-05T01:43:50;99042.47;;;-3.00;100.00
59650;BME280;46162;57.568;25.814;2023-03-05T01:46:30;99048.28;;;-2.95;100.00
59650;BME280;46162;57.568;25.814;2023-03-05T01:49:08;99042.69;;;-3.03;100.00
59650;BME280;46162;57.568;25.814;2023-03-05T01:51:41;99038.47;;;-3.06;100.00
59650;BME280;46162;57.568;25.814;2023-03-05T01:54:13;99038.91;;;-2.99;100.00
59650;BME280;46162;57.568;25.814;2023-03-05T01:56:45;99043.97;;;-3.09;100.00
59650;BME280;46162;57.568;25.814;2023-03-05T01:59:16;99041.88;;;-3.16;100.00
59650;BME280;46162;57.568;25.814;2023-03-05T02:01:49;99039.00;;;-3.13;100.00
59650;BME280;46162;57.568;25.814;2023-03-05T02:04:20;99039.31;;;-3.18;100.00
59650;BME280;46162;57.568;25.814;2023-03-05T02:06:51;99034.03;;;-3.18;100.00
59650;BME280;46162;57.568;25.814;2023-03-05T02:09:19;99030.25;;;-3.14;100.00
59650;BME280;46162;57.568;25.814;2023-03-05T02:11:51;99033.38;;;-3.21;100.00
59650;BME280;46162;57.568;25.814;2023-03-05T02:14:20;99042.28;;;-3.22;100.00
59650;BME280;46162;57.568;25.814;2023-03-05T02:16:50;99037.22;;;-3.26;100.00
59650;BME280;46162;57.568;25.814;2023-03-05T02:19:19;99033.72;;;-3.26;100.00
59650;BME280;46162;57.568;25.814;2023-03-05T02:21:50;99029.91;;;-3.35;100.00
59650;BME280;46162;57.568;25.814;2023-03-05T02:24:33;99028.97;;;-3.34;100.00
59650;BME280;46162;57.568;25.814;2023-03-05T02:27:03;99026.34;;;-3.34;100.00
59650;BME280;46162;57.568;25.814;2023-03-05T02:29:34;99030.66;;;-3.33;100.00
59650;BME280;46162;57.568;25.814;2023-03-05T02:32:06;99023.72;;;-3.34;100.00
59650;BME280;46162;57.568;25.814;2023-03-05T02:34:35;99029.69;;;-3.32;100.00
59650;BME280;46162;57.568;25.814;2023-03-05T02:37:06;99032.56;;;-3.35;100.00
59650;BME280;46162;57.568;25.814;2023-03-05T02:39:37;99030.44;;;-3.30;100.00
59650;BME280;46162;57.568;25.814;2023-03-05T02:42:07;99032.34;;;-3.32;100.00
59650;BME280;46162;57.568;25.814;2023-03-05T02:44:36;99028.03;;;-3.33;100.00
59650;BME280;46162;57.568;25.814;2023-03-05T02:47:05;99037.22;;;-3.38;100.00
59650;BME280;46162;57.568;25.814;2023-03-05T02:49:34;99035.63;;;-3.41;100.00
59650;BME280;46162;57.568;25.814;2023-03-05T02:52:03;99028.09;;;-3.47;100.00
59650;BME280;46162;57.568;25.814;2023-03-05T02:54:33;99030.66;;;-3.46;100.00
59650;BME280;46162;57.568;25.814;2023-03-05T02:57:02;99023.88;;;-3.50;100.00
59650;BME280;46162;57.568;25.814;2023-03-05T02:59:31;99030.22;;;-3.52;100.00
59650;BME280;46162;57.568;25.814;2023-03-05T03:02:00;99029.59;;;-3.56;100.00
59650;BME280;46162;57.568;25.814;2023-03-05T03:04:29;99018.28;;;-3.58;100.00
59650;BME280;46162;57.568;25.814;2023-03-05T03:06:58;99016.78;;;-3.62;100.00
59650;BME280;46162;57.568;25.814;2023-03-05T03:09:26;99023.56;;;-3.71;100.00
59650;BME280;46162;57.568;25.814;2023-03-05T03:11:56;99020.56;;;-3.79;100.00
59650;BME280;46162;57.568;25.814;2023-03-05T03:14:25;99021.91;;;-3.86;100.00
59650;BME280;46162;57.568;25.814;2023-03-05T03:16:53;99024.88;;;-3.91;100.00
59650;BME280;46162;57.568;25.814;2023-03-05T03:19:22;99025.06;;;-3.94;100.00
59650;BME280;46162;57.568;25.814;2023-03-05T03:21:51;99019.75;;;-4.06;100.00
59650;BME280;46162;57.568;25.814;2023-03-05T03:24:21;99013.78;;;-4.23;100.00
59650;BME280;46162;57.568;25.814;2023-03-05T03:26:49;99012.59;;;-4.32;100.00
59650;BME280;46162;57.568;25.814;2023-03-05T03:29:19;99024.25;;;-4.36;100.00
59650;BME280;46162;57.568;25.814;2023-03-05T03:31:48;99020.16;;;-4.40;100.00
59650;BME280;46162;57.568;25.814;2023-03-05T03:34:16;99018.56;;;-4.42;100.00
59650;BME280;46162;57.568;25.814;2023-03-05T03:36:46;99025.47;;;-4.54;100.00
59650;BME280;46162;57.568;25.814;2023-03-05T03:39:15;99025.66;;;-4.57;100.00
59650;BME280;46162;57.568;25.814;2023-03-05T03:41:47;99021.53;;;-4.76;100.00
59650;BME280;46162;57.568;25.814;2023-03-05T03:44:19;99025.22;;;-4.78;100.00
59650;BME280;46162;57.568;25.814;2023-03-05T03:46:49;99023.13;;;-4.87;100.00
59650;BME280;46162;57.568;25.814;2023-03-05T03:49:19;99022.22;;;-4.72;100.00
59650;BME280;46162;57.568;25.814;2023-03-05T03:51:50;99026.59;;;-4.58;100.00
59650;BME280;46162;57.568;25.814;2023-03-05T03:54:20;99025.25;;;-4.51;100.00
59650;BME280;46162;57.568;25.814;2023-03-05T03:56:49;99024.56;;;-4.40;100.00
59650;BME280;46162;57.568;25.814;2023-03-05T03:59:20;99018.75;;;-4.45;100.00
59650;BME280;46162;57.568;25.814;2023-03-05T04:01:48;99022.50;;;-4.35;100.00
59650;BME280;46162;57.568;25.814;2023-03-05T04:04:17;99016.19;;;-4.33;100.00
59650;BME280;46162;57.568;25.814;2023-03-05T04:06:46;99017.13;;;-4.34;100.00
59650;BME280;46162;57.568;25.814;2023-03-05T04:09:15;99023.06;;;-4.30;100.00
59650;BME280;46162;57.568;25.814;2023-03-05T04:11:44;99019.38;;;-4.27;100.00
59650;BME280;46162;57.568;25.814;2023-03-05T04:14:13;99019.25;;;-4.26;100.00
59650;BME280;46162;57.568;25.814;2023-03-05T04:16:44;99010.81;;;-4.31;100.00
59650;BME280;46162;57.568;25.814;2023-03-05T04:19:12;99013.34;;;-4.29;100.00
59650;BME280;46162;57.568;25.814;2023-03-05T04:21:42;99008.16;;;-4.31;100.00
59650;BME280;46162;57.568;25.814;2023-03-05T04:24:11;99007.25;;;-4.30;100.00
59650;BME280;46162;57.568;25.814;2023-03-05T04:26:42;99001.75;;;-4.27;100.00
59650;BME280;46162;57.568;25.814;2023-03-05T04:29:14;99003.22;;;-4.23;100.00
59650;BME280;46162;57.568;25.814;2023-03-05T04:31:44;99005.16;;;-4.25;100.00
59650;BME280;46162;57.568;25.814;2023-03-05T04:34:16;99004.94;;;-4.22;100.00
59650;BME280;46162;57.568;25.814;2023-03-05T04:36:45;99012.09;;;-4.24;100.00
59650;BME280;46162;57.568;25.814;2023-03-05T04:39:16;99001.56;;;-4.24;100.00
59650;BME280;46162;57.568;25.814;2023-03-05T04:41:47;99003.22;;;-4.23;100.00
59650;BME280;46162;57.568;25.814;2023-03-05T04:44:17;99005.78;;;-4.21;100.00
59650;BME280;46162;57.568;25.814;2023-03-05T04:46:47;98998.94;;;-4.24;100.00
59650;BME280;46162;57.568;25.814;2023-03-05T04:49:18;98997.97;;;-4.23;100.00
59650;BME280;46162;57.568;25.814;2023-03-05T04:51:47;98995.44;;;-4.24;100.00
59650;BME280;46162;57.568;25.814;2023-03-05T04:54:16;98998.38;;;-4.29;100.00
59650;BME280;46162;57.568;25.814;2023-03-05T04:56:45;98998.22;;;-4.40;100.00
59650;BME280;46162;57.568;25.814;2023-03-05T04:59:14;98996.16;;;-4.35;100.00
59650;BME280;46162;57.568;25.814;2023-03-05T05:01:43;99001.00;;;-4.29;100.00
59650;BME280;46162;57.568;25.814;2023-03-05T05:04:17;99001.56;;;-4.24;100.00
59650;BME280;46162;57.568;25.814;2023-03-05T05:06:48;98994.69;;;-4.26;100.00
59650;BME280;46162;57.568;25.814;2023-03-05T05:09:17;99000.00;;;-4.14;100.00
59650;BME280;46162;57.568;25.814;2023-03-05T05:11:46;99002.66;;;-4.14;100.00
59650;BME280;46162;57.568;25.814;2023-03-05T05:14:21;98993.69;;;-4.11;100.00
59650;BME280;46162;57.568;25.814;2023-03-05T05:16:50;99003.94;;;-4.06;100.00
59650;BME280;46162;57.568;25.814;2023-03-05T05:19:21;99007.41;;;-4.06;100.00
59650;BME280;46162;57.568;25.814;2023-03-05T05:21:53;99000.03;;;-4.01;100.00
59650;BME280;46162;57.568;25.814;2023-03-05T05:24:25;98999.91;;;-4.12;100.00
59650;BME280;46162;57.568;25.814;2023-03-05T05:26:54;98996.44;;;-4.13;100.00
59650;BME280;46162;57.568;25.814;2023-03-05T05:29:26;98996.00;;;-4.19;100.00
59650;BME280;46162;57.568;25.814;2023-03-05T05:31:57;98996.28;;;-4.24;100.00
59650;BME280;46162;57.568;25.814;2023-03-05T05:34:32;98991.69;;;-4.47;100.00
59650;BME280;46162;57.568;25.814;2023-03-05T05:37:01;98993.97;;;-4.70;100.00
59650;BME280;46162;57.568;25.814;2023-03-05T05:39:30;98997.00;;;-4.76;100.00
59650;BME280;46162;57.568;25.814;2023-03-05T05:42:05;99003.22;;;-4.91;100.00
59650;BME280;46162;57.568;25.814;2023-03-05T05:44:36;99004.47;;;-5.26;100.00
59650;BME280;46162;57.568;25.814;2023-03-05T05:47:10;98997.06;;;-5.19;100.00
59650;BME280;46162;57.568;25.814;2023-03-05T05:49:48;99000.31;;;-5.44;100.00
59650;BME280;46162;57.568;25.814;2023-03-05T05:52:23;98998.97;;;-5.66;100.00
59650;BME280;46162;57.568;25.814;2023-03-05T05:54:55;99000.34;;;-5.74;100.00
59650;BME280;46162;57.568;25.814;2023-03-05T05:57:27;99003.09;;;-5.76;100.00
59650;BME280;46162;57.568;25.814;2023-03-05T06:00:02;99002.41;;;-5.79;100.00
59650;BME280;46162;57.568;25.814;2023-03-05T06:02:37;99004.47;;;-5.85;100.00
59650;BME280;46162;57.568;25.814;2023-03-05T06:05:12;99004.44;;;-5.99;100.00
59650;BME280;46162;57.568;25.814;2023-03-05T06:07:49;99001.56;;;-6.24;100.00
59650;BME280;46162;57.568;25.814;2023-03-05T06:10:42;99001.19;;;-6.18;100.00
59650;BME280;46162;57.568;25.814;2023-03-05T06:13:33;98993.53;;;-6.07;100.00
59650;BME280;46162;57.568;25.814;2023-03-05T06:16:29;99012.88;;;-6.08;100.00
59650;BME280;46162;57.568;25.814;2023-03-05T06:19:11;99003.34;;;-5.80;100.00
59650;BME280;46162;57.568;25.814;2023-03-05T06:21:47;99001.78;;;-5.54;100.00
59650;BME280;46162;57.568;25.814;2023-03-05T06:24:36;98991.22;;;-5.38;100.00
59650;BME280;46162;57.568;25.814;2023-03-05T06:27:21;98997.66;;;-5.44;100.00
59650;BME280;46162;57.568;25.814;2023-03-05T06:30:18;98997.22;;;-5.22;100.00
59650;BME280;46162;57.568;25.814;2023-03-05T06:33:04;99008.38;;;-4.90;100.00
59650;BME280;46162;57.568;25.814;2023-03-05T06:35:43;99012.22;;;-4.67;100.00
59650;BME280;46162;57.568;25.814;2023-03-05T06:38:17;99015.00;;;-4.56;100.00
59650;BME280;46162;57.568;25.814;2023-03-05T06:40:46;99014.03;;;-4.40;100.00
59650;BME280;46162;57.568;25.814;2023-03-05T06:43:21;99015.53;;;-4.36;100.00
59650;BME280;46162;57.568;25.814;2023-03-05T06:46:01;99011.34;;;-4.26;100.00
59650;BME280;46162;57.568;25.814;2023-03-05T06:48:33;99013.59;;;-4.20;100.00
59650;BME280;46162;57.568;25.814;2023-03-05T06:51:11;99019.00;;;-4.08;100.00
59650;BME280;46162;57.568;25.814;2023-03-05T06:53:47;99012.38;;;-4.01;100.00
59650;BME280;46162;57.568;25.814;2023-03-05T06:56:17;99016.00;;;-3.90;100.00
59650;BME280;46162;57.568;25.814;2023-03-05T06:58:53;99009.69;;;-3.87;100.00
59650;BME280;46162;57.568;25.814;2023-03-05T07:01:27;99013.59;;;-3.80;100.00
59650;BME280;46162;57.568;25.814;2023-03-05T07:03:59;99006.97;;;-3.73;100.00
59650;BME280;46162;57.568;25.814;2023-03-05T07:06:35;99011.06;;;-3.69;100.00
59650;BME280;46162;57.568;25.814;2023-03-05T07:09:09;99009.53;;;-3.58;100.00
59650;BME280;46162;57.568;25.814;2023-03-05T07:11:52;99011.97;;;-3.55;100.00
59650;BME280;46162;57.568;25.814;2023-03-05T07:14:25;99011.66;;;-3.51;100.00
59650;BME280;46162;57.568;25.814;2023-03-05T07:16:54;99011.13;;;-3.43;100.00
59650;BME280;46162;57.568;25.814;2023-03-05T07:19:23;99009.75;;;-3.36;100.00
59650;BME280;46162;57.568;25.814;2023-03-05T07:21:52;99009.34;;;-3.30;100.00
59650;BME280;46162;57.568;25.814;2023-03-05T07:24:23;99009.63;;;-3.34;100.00
59650;BME280;46162;57.568;25.814;2023-03-05T07:26:59;99011.75;;;-3.27;100.00
59650;BME280;46162;57.568;25.814;2023-03-05T07:29:31;99010.38;;;-3.19;100.00
59650;BME280;46162;57.568;25.814;2023-03-05T07:31:59;99006.38;;;-3.12;100.00
59650;BME280;46162;57.568;25.814;2023-03-05T07:34:31;99003.38;;;-2.95;100.00
59650;BME280;46162;57.568;25.814;2023-03-05T07:37:00;99001.50;;;-2.93;100.00
59650;BME280;46162;57.568;25.814;2023-03-05T07:39:31;99010.56;;;-2.97;100.00
59650;BME280;46162;57.568;25.814;2023-03-05T07:42:00;99009.53;;;-2.82;100.00
59650;BME280;46162;57.568;25.814;2023-03-05T07:44:50;99006.78;;;-2.93;100.00
59650;BME280;46162;57.568;25.814;2023-03-05T07:47:22;99011.41;;;-2.84;100.00
59650;BME280;46162;57.568;25.814;2023-03-05T07:49:51;99010.16;;;-2.91;100.00
59650;BME280;46162;57.568;25.814;2023-03-05T07:52:20;99010.06;;;-2.89;100.00
59650;BME280;46162;57.568;25.814;2023-03-05T07:54:51;99018.38;;;-2.83;100.00
59650;BME280;46162;57.568;25.814;2023-03-05T07:57:23;99008.19;;;-2.63;100.00
59650;BME280;46162;57.568;25.814;2023-03-05T07:59:54;99018.03;;;-2.65;100.00
59650;BME280;46162;57.568;25.814;2023-03-05T08:02:23;99014.44;;;-2.64;100.00
59650;BME280;46162;57.568;25.814;2023-03-05T08:04:52;99003.81;;;-2.88;100.00
59650;BME280;46162;57.568;25.814;2023-03-05T08:07:24;99005.38;;;-2.73;100.00
59650;BME280;46162;57.568;25.814;2023-03-05T08:09:55;99014.34;;;-2.75;100.00
59650;BME280;46162;57.568;25.814;2023-03-05T08:12:24;99009.91;;;-2.75;100.00
59650;BME280;46162;57.568;25.814;2023-03-05T08:14:56;99013.84;;;-2.81;100.00
59650;BME280;46162;57.568;25.814;2023-03-05T08:17:25;99009.50;;;-2.94;100.00
59650;BME280;46162;57.568;25.814;2023-03-05T08:19:54;99013.13;;;-2.95;100.00
59650;BME280;46162;57.568;25.814;2023-03-05T08:22:29;99017.44;;;-2.82;100.00
59650;BME280;46162;57.568;25.814;2023-03-05T08:25:02;99015.66;;;-2.94;100.00
59650;BME280;46162;57.568;25.814;2023-03-05T08:27:31;99013.41;;;-2.87;100.00
59650;BME280;46162;57.568;25.814;2023-03-05T08:30:01;99015.66;;;-2.94;100.00
59650;BME280;46162;57.568;25.814;2023-03-05T08:32:31;99018.31;;;-2.94;100.00
59650;BME280;46162;57.568;25.814;2023-03-05T08:35:00;99017.56;;;-2.96;100.00
59650;BME280;46162;57.568;25.814;2023-03-05T08:37:31;99022.84;;;-2.96;100.00
59650;BME280;46162;57.568;25.814;2023-03-05T08:40:02;99014.16;;;-2.85;100.00
59650;BME280;46162;57.568;25.814;2023-03-05T08:42:32;99016.25;;;-2.77;100.00
59650;BME280;46162;57.568;25.814;2023-03-05T08:45:01;99015.50;;;-2.79;100.00
59650;BME280;46162;57.568;25.814;2023-03-05T08:47:36;99016.06;;;-2.74;100.00
59650;BME280;46162;57.568;25.814;2023-03-05T08:50:06;99017.81;;;-2.75;100.00
59650;BME280;46162;57.568;25.814;2023-03-05T08:52:34;99016.91;;;-2.87;100.00
59650;BME280;46162;57.568;25.814;2023-03-05T08:55:05;99016.91;;;-2.99;100.00
59650;BME280;46162;57.568;25.814;2023-03-05T08:57:36;99012.28;;;-2.96;100.00
59650;BME280;46162;57.568;25.814;2023-03-05T09:00:06;99017.97;;;-3.02;100.00
59650;BME280;46162;57.568;25.814;2023-03-05T09:02:36;99015.78;;;-3.08;100.00
59650;BME280;46162;57.568;25.814;2023-03-05T09:05:06;99020.22;;;-3.09;100.00
59650;BME280;46162;57.568;25.814;2023-03-05T09:07:35;99020.31;;;-3.10;100.00
59650;BME280;46162;57.568;25.814;2023-03-05T09:10:08;99016.09;;;-3.26;100.00
59650;BME280;46162;57.568;25.814;2023-03-05T09:12:39;99018.81;;;-3.14;100.00
59650;BME280;46162;57.568;25.814;2023-03-05T09:15:10;99025.69;;;-3.12;100.00
59650;BME280;46162;57.568;25.814;2023-03-05T09:17:39;99030.25;;;-3.01;100.00
59650;BME280;46162;57.568;25.814;2023-03-05T09:20:11;99031.81;;;-2.98;100.00
59650;BME280;46162;57.568;25.814;2023-03-05T09:22:40;99023.56;;;-3.07;100.00
59650;BME280;46162;57.568;25.814;2023-03-05T09:25:11;99032.34;;;-3.06;100.00
59650;BME280;46162;57.568;25.814;2023-03-05T09:27:40;99030.03;;;-2.98;100.00
59650;BME280;46162;57.568;25.814;2023-03-05T09:30:15;99034.13;;;-3.07;100.00
59650;BME280;46162;57.568;25.814;2023-03-05T09:32:43;99037.31;;;-3.14;100.00
59650;BME280;46162;57.568;25.814;2023-03-05T09:35:13;99036.34;;;-3.00;100.00
59650;BME280;46162;57.568;25.814;2023-03-05T09:37:42;99033.41;;;-3.09;100.00
59650;BME280;46162;57.568;25.814;2023-03-05T09:40:15;99037.41;;;-3.03;100.00
59650;BME280;46162;57.568;25.814;2023-03-05T09:42:56;99043.75;;;-2.93;100.00
59650;BME280;46162;57.568;25.814;2023-03-05T09:45:32;99033.63;;;-2.99;100.00
59650;BME280;46162;57.568;25.814;2023-03-05T09:48:12;99035.72;;;-2.91;100.00
59650;BME280;46162;57.568;25.814;2023-03-05T09:50:46;99035.50;;;-2.88;100.00
59650;BME280;46162;57.568;25.814;2023-03-05T09:53:22;99038.56;;;-2.94;100.00
59650;BME280;46162;57.568;25.814;2023-03-05T09:55:55;99042.47;;;-3.00;100.00
59650;BME280;46162;57.568;25.814;2023-03-05T09:58:33;99038.56;;;-2.94;100.00
59650;BME280;46162;57.568;25.814;2023-03-05T10:01:05;99040.81;;;-3.01;100.00
59650;BME280;46162;57.568;25.814;2023-03-05T10:03:51;99036.78;;;-3.07;100.00
59650;BME280;46162;57.568;25.814;2023-03-05T10:06:23;99040.38;;;-3.08;100.00
59650;BME280;46162;57.568;25.814;2023-03-05T10:08:54;99042.25;;;-2.97;100.00
59650;BME280;46162;57.568;25.814;2023-03-05T10:11:43;99047.88;;;-3.01;100.00
59650;BME280;46162;57.568;25.814;2023-03-05T10:14:17;99041.84;;;-3.04;100.00
59650;BME280;46162;57.568;25.814;2023-03-05T10:17:24;99051.38;;;-3.01;100.00
59650;BME280;46162;57.568;25.814;2023-03-05T10:20:12;99047.97;;;-3.03;100.00
59650;BME280;46162;57.568;25.814;2023-03-05T10:22:57;99047.44;;;-2.95;100.00
59650;BME280;46162;57.568;25.814;2023-03-05T10:25:46;99043.53;;;-2.90;100.00
59650;BME280;46162;57.568;25.814;2023-03-05T10:28:21;99047.44;;;-2.83;100.00
59650;BME280;46162;57.568;25.814;2023-03-05T10:33:52;99048.81;;;-2.90;100.00
59650;BME280;46162;57.568;25.814;2023-03-05T10:36:40;99044.75;;;-2.70;100.00
59650;BME280;46162;57.568;25.814;2023-03-05T10:39:36;99046.69;;;-2.85;100.00
59650;BME280;46162;57.568;25.814;2023-03-05T10:42:12;99042.34;;;-2.73;100.00
59650;BME280;46162;57.568;25.814;2023-03-05T10:44:48;99047.50;;;-2.58;100.00
59650;BME280;46162;57.568;25.814;2023-03-05T10:47:22;99037.03;;;-2.60;100.00
59650;BME280;46162;57.568;25.814;2023-03-05T10:49:53;99041.69;;;-2.64;100.00
59650;BME280;46162;57.568;25.814;2023-03-05T10:52:27;99042.78;;;-2.66;100.00
59650;BME280;46162;57.568;25.814;2023-03-05T10:54:58;99053.41;;;-2.55;100.00
59650;BME280;46162;57.568;25.814;2023-03-05T10:57:30;99047.06;;;-2.52;100.00
59650;BME280;46162;57.568;25.814;2023-03-05T11:00:10;99046.03;;;-2.63;100.00
59650;BME280;46162;57.568;25.814;2023-03-05T11:02:58;99044.31;;;-2.51;100.00
59650;BME280;46162;57.568;25.814;2023-03-05T11:05:45;99049.19;;;-2.57;100.00
59650;BME280;46162;57.568;25.814;2023-03-05T11:08:27;99050.50;;;-2.76;100.00
59650;BME280;46162;57.568;25.814;2023-03-05T11:11:17;99039.47;;;-2.70;100.00
59650;BME280;46162;57.568;25.814;2023-03-05T11:13:55;99042.44;;;-2.62;100.00
59650;BME280;46162;57.568;25.814;2023-03-05T11:16:27;99040.72;;;-2.63;100.00
59650;BME280;46162;57.568;25.814;2023-03-05T11:19:18;99036.19;;;-2.61;100.00
59650;BME280;46162;57.568;25.814;2023-03-05T11:22:04;99028.47;;;-2.51;100.00
59650;BME280;46162;57.568;25.814;2023-03-05T11:24:33;99042.63;;;-2.52;100.00
59650;BME280;46162;57.568;25.814;2023-03-05T11:27:21;99037.78;;;-2.58;100.00
59650;BME280;46162;57.568;25.814;2023-03-05T11:29:50;99038.41;;;-2.54;100.00
59650;BME280;46162;57.568;25.814;2023-03-05T11:32:22;99038.00;;;-2.61;100.00
59650;BME280;46162;57.568;25.814;2023-03-05T11:34:52;99045.19;;;-2.63;100.00
59650;BME280;46162;57.568;25.814;2023-03-05T11:37:23;99041.59;;;-2.62;100.00
59650;BME280;46162;57.568;25.814;2023-03-05T11:40:18;99036.22;;;-2.73;100.00
59650;BME280;46162;57.568;25.814;2023-03-05T11:42:52;99042.06;;;-2.81;100.00
59650;BME280;46162;57.568;25.814;2023-03-05T11:45:24;99040.53;;;-2.72;100.00
59650;BME280;46162;57.568;25.814;2023-03-05T11:47:56;99040.63;;;-2.61;100.00
59650;BME280;46162;57.568;25.814;2023-03-05T11:50:28;99046.22;;;-2.53;100.00
59650;BME280;46162;57.568;25.814;2023-03-05T11:53:01;99045.19;;;-2.63;100.00
59650;BME280;46162;57.568;25.814;2023-03-05T11:55:35;99046.66;;;-2.59;100.00
59650;BME280;46162;57.568;25.814;2023-03-05T11:58:21;99038.06;;;-2.50;100.00
59650;BME280;46162;57.568;25.814;2023-03-05T12:00:52;99043.53;;;-2.40;100.00
59650;BME280;46162;57.568;25.814;2023-03-05T12:03:29;99033.09;;;-2.42;100.00
59650;BME280;46162;57.568;25.814;2023-03-05T12:06:04;99054.63;;;-2.35;100.00
59650;BME280;46162;57.568;25.814;2023-03-05T12:08:41;99051.38;;;-2.39;100.00
59650;BME280;46162;57.568;25.814;2023-03-05T12:11:16;99043.47;;;-2.51;100.00
59650;BME280;46162;57.568;25.814;2023-03-05T12:13:49;99045.09;;;-2.38;100.00
59650;BME280;46162;57.568;25.814;2023-03-05T12:16:27;99054.97;;;-2.40;100.00
59650;BME280;46162;57.568;25.814;2023-03-05T12:19:35;99051.06;;;-2.47;100.00
59650;BME280;46162;57.568;25.814;2023-03-05T12:22:16;99053.63;;;-2.58;100.00
59650;BME280;46162;57.568;25.814;2023-03-05T12:24:46;99049.19;;;-2.57;100.00
59650;BME280;46162;57.568;25.814;2023-03-05T12:27:32;99049.63;;;-2.64;100.00
59650;BME280;46162;57.568;25.814;2023-03-05T12:30:02;99050.66;;;-2.53;100.00
59650;BME280;46162;57.568;25.814;2023-03-05T12:32:58;99048.78;;;-2.64;100.00
59650;BME280;46162;57.568;25.814;2023-03-05T12:35:36;99052.88;;;-2.60;100.00
59650;BME280;46162;57.568;25.814;2023-03-05T12:38:17;99056.31;;;-2.84;100.00
59650;BME280;46162;57.568;25.814;2023-03-05T12:44:24;99061.59;;;-2.84;100.00
59650;BME280;46162;57.568;25.814;2023-03-05T12:47:15;99055.56;;;-2.86;100.00
59650;BME280;46162;57.568;25.814;2023-03-05T12:49:46;99055.47;;;-2.84;100.00
59650;BME280;46162;57.568;25.814;2023-03-05T12:52:25;99053.91;;;-2.87;100.00
59650;BME280;46162;57.568;25.814;2023-03-05T12:54:59;99063.19;;;-2.94;100.00
59650;BME280;46162;57.568;25.814;2023-03-05T12:57:30;99062.88;;;-2.89;100.00
59650;BME280;46162;57.568;25.814;2023-03-05T13:00:05;99063.06;;;-2.92;100.00
59650;BME280;46162;57.568;25.814;2023-03-05T13:02:39;99058.44;;;-3.01;100.00
59650;BME280;46162;57.568;25.814;2023-03-05T13:05:18;99063.81;;;-2.90;100.00
59650;BME280;46162;57.568;25.814;2023-03-05T13:07:49;99057.47;;;-2.88;100.00
59650;BME280;46162;57.568;25.814;2023-03-05T13:10:23;99060.84;;;-2.86;100.00
59650;BME280;46162;57.568;25.814;2023-03-05T13:12:54;99052.94;;;-2.86;100.00
59650;BME280;46162;57.568;25.814;2023-03-05T13:15:26;99057.25;;;-2.85;100.00
59650;BME280;46162;57.568;25.814;2023-03-05T13:17:56;99050.50;;;-2.89;100.00